createdAt,value
2019-02-06T00:03:06.898Z,32.10
2019-02-06T00:06:20.501Z,32.00
2019-02-06T00:09:43.572Z,32.00
2019-02-06T00:12:59.727Z,32.10
2019-02-06T00:16:15.761Z,32.10
2019-02-06T00:19:31.411Z,32.00
2019-02-06T00:22:46.942Z,32.00
2019-02-06T00:26:02.832Z,31.90
2019-02-06T00:29:18.791Z,31.90
2019-02-06T00:32:34.896Z,32.10
2019-02-06T00:35:50.714Z,31.80
2019-02-06T00:39:06.326Z,32.00
2019-02-06T00:42:21.842Z,31.90
2019-02-06T00:45:37.562Z,32.00
2019-02-06T00:48:52.779Z,31.80
2019-02-06T00:52:08.818Z,32.00
2019-02-06T00:55:24.954Z,32.00
2019-02-06T00:58:40.671Z,31.80
2019-02-06T01:01:56.778Z,32.00
2019-02-06T01:05:12.612Z,32.00
2019-02-06T01:08:28.382Z,31.80
2019-02-06T01:11:43.926Z,31.90
2019-02-06T01:15:00.021Z,32.50
2019-02-06T01:18:15.257Z,31.80
2019-02-06T01:21:31.336Z,32.00
2019-02-06T01:24:47.191Z,32.00
2019-02-06T01:28:03.247Z,31.90
2019-02-06T01:31:20.644Z,31.90
2019-02-06T01:34:36.191Z,31.80
2019-02-06T01:37:52.207Z,32.00
2019-02-06T01:41:08.376Z,32.00
2019-02-06T01:44:24.154Z,32.00
2019-02-06T01:47:40.334Z,32.00
2019-02-06T01:50:56.210Z,32.00
2019-02-06T01:54:11.482Z,31.90
2019-02-06T01:57:27.526Z,32.00
2019-02-06T02:00:43.494Z,32.00
2019-02-06T02:03:59.183Z,31.90
2019-02-06T02:07:15.130Z,31.90
2019-02-06T02:10:30.994Z,32.00
2019-02-06T02:13:46.184Z,31.70
2019-02-06T02:17:02.251Z,31.70
2019-02-06T02:20:18.139Z,31.80
2019-02-06T02:23:33.694Z,32.00
2019-02-06T02:26:49.465Z,32.00
2019-02-06T02:30:07.183Z,32.00
2019-02-06T02:33:22.615Z,32.00
2019-02-06T02:36:38.667Z,31.80
2019-02-06T02:39:54.463Z,31.80
2019-02-06T02:43:10.574Z,32.00
2019-02-06T02:46:26.561Z,31.90
2019-02-06T02:49:42.420Z,31.90
2019-02-06T02:52:58.259Z,31.90
2019-02-06T02:56:13.954Z,31.90
2019-02-06T02:59:29.162Z,31.90
2019-02-06T03:02:46.718Z,31.80
2019-02-06T03:06:02.191Z,31.90
2019-02-06T03:09:18.106Z,31.70
2019-02-06T03:12:34.121Z,31.80
2019-02-06T03:15:49.954Z,31.70
2019-02-06T03:19:05.383Z,31.80
2019-02-06T03:22:21.339Z,31.90
2019-02-06T03:25:37.371Z,31.70
2019-02-06T03:28:52.967Z,31.60
2019-02-06T03:32:09.059Z,31.90
2019-02-06T03:35:24.763Z,31.90
2019-02-06T03:38:40.710Z,31.90
2019-02-06T03:41:55.961Z,31.80
2019-02-06T03:45:11.756Z,31.80
2019-02-06T03:48:27.552Z,31.60
2019-02-06T03:51:43.418Z,31.60
2019-02-06T03:54:59.351Z,31.60
2019-02-06T03:58:15.375Z,31.80
2019-02-06T04:01:30.678Z,31.60
2019-02-06T04:04:46.412Z,31.70
2019-02-06T04:08:00.005Z,31.60
2019-02-06T04:11:22.702Z,31.80
2019-02-06T04:14:38.134Z,31.60
2019-02-06T04:17:54.591Z,31.80
2019-02-06T04:21:09.962Z,31.60
2019-02-06T04:24:25.708Z,31.80
2019-02-06T04:27:41.489Z,31.60
2019-02-06T04:30:57.388Z,31.60
2019-02-06T04:34:13.147Z,31.80
2019-02-06T04:37:28.858Z,31.80
2019-02-06T04:40:44.310Z,31.80
2019-02-06T04:43:59.950Z,31.60
2019-02-06T04:47:15.853Z,31.70
2019-02-06T04:50:31.526Z,31.80
2019-02-06T04:53:47.251Z,31.80
2019-02-06T04:57:02.513Z,31.80
2019-02-06T05:00:18.394Z,31.40
2019-02-06T05:03:21.666Z,31.60
2019-02-06T05:06:46.071Z,31.80
2019-02-06T05:10:01.342Z,31.70
2019-02-06T05:13:16.605Z,31.60
2019-02-06T05:16:32.458Z,31.80
2019-02-06T05:19:48.003Z,31.60
2019-02-06T05:23:03.228Z,31.70
2019-02-06T05:26:18.827Z,31.50
2019-02-06T05:29:34.719Z,31.70
2019-02-06T05:32:50.724Z,31.80
2019-02-06T05:36:06.407Z,31.50
2019-02-06T05:39:22.161Z,31.50
2019-02-06T05:42:38.240Z,31.70
2019-02-06T05:45:53.846Z,31.70
2019-02-06T05:49:09.503Z,31.50
2019-02-06T05:52:25.273Z,31.70
2019-02-06T05:55:41.221Z,31.50
2019-02-06T05:58:54.839Z,31.50
2019-02-06T06:02:17.520Z,31.60
2019-02-06T06:05:33.321Z,31.60
2019-02-06T06:08:49.344Z,31.40
2019-02-06T06:12:05.616Z,31.50
2019-02-06T06:15:21.211Z,31.70
2019-02-06T06:18:36.577Z,31.70
2019-02-06T06:21:52.275Z,31.40
2019-02-06T06:25:07.791Z,31.70
2019-02-06T06:28:23.548Z,31.40
2019-02-06T06:31:39.455Z,31.70
2019-02-06T06:34:55.126Z,31.50
2019-02-06T06:38:10.791Z,31.50
2019-02-06T06:41:26.927Z,31.70
2019-02-06T06:44:42.656Z,31.50
2019-02-06T06:47:58.595Z,31.60
2019-02-06T06:51:14.409Z,31.60
2019-02-06T06:54:30.473Z,31.40
2019-02-06T06:57:46.381Z,31.60
2019-02-06T07:01:03.048Z,31.60
2019-02-06T07:04:18.347Z,31.50
2019-02-06T07:07:34.332Z,31.50
2019-02-06T07:10:49.994Z,31.50
2019-02-06T07:14:06.107Z,31.40
2019-02-06T07:17:21.974Z,31.60
2019-02-06T07:20:37.588Z,31.40
2019-02-06T07:23:52.850Z,31.50
2019-02-06T07:27:09.098Z,31.60
2019-02-06T07:30:24.990Z,31.40
2019-02-06T07:33:41.194Z,31.50
2019-02-06T07:36:54.814Z,31.40
2019-02-06T07:40:10.339Z,31.60
2019-02-06T07:43:26.486Z,31.40
2019-02-06T07:46:42.415Z,31.60
2019-02-06T07:49:58.334Z,31.60
2019-02-06T07:53:14.374Z,31.40
2019-02-06T07:56:29.666Z,32.10
2019-02-06T07:59:45.310Z,31.30
2019-02-06T08:03:01.178Z,31.60
2019-02-06T08:09:34.437Z,31.60
2019-02-06T08:12:50.111Z,31.60
2019-02-06T08:16:07.365Z,31.70
2019-02-06T08:19:22.988Z,31.80
2019-02-06T08:22:36.591Z,32.60
2019-02-06T08:25:52.753Z,32.00
2019-02-06T08:29:08.530Z,32.10
2019-02-06T08:32:24.671Z,32.20
2019-02-06T08:35:40.802Z,32.20
2019-02-06T08:38:56.111Z,32.10
2019-02-06T08:42:11.706Z,32.10
2019-02-06T08:45:27.680Z,32.30
2019-02-06T08:48:43.499Z,32.30
2019-02-06T08:55:17.141Z,32.10
2019-02-06T08:58:33.110Z,32.10
2019-02-06T09:01:48.926Z,32.00
2019-02-06T09:05:07.527Z,32.20
2019-02-06T09:08:21.831Z,32.20
2019-02-06T09:15:02.268Z,32.00
2019-02-06T09:18:15.950Z,32.00
2019-02-06T09:21:31.271Z,32.20
2019-02-06T09:24:46.502Z,32.00
2019-02-06T09:28:02.447Z,32.10
2019-02-06T09:31:18.595Z,32.00
2019-02-06T09:34:34.699Z,31.90
2019-02-06T09:37:49.934Z,32.00
2019-02-06T09:41:05.934Z,32.00
2019-02-06T09:44:21.926Z,32.20
2019-02-06T09:47:37.191Z,32.00
2019-02-06T09:50:53.267Z,32.20
2019-02-06T09:54:09.168Z,32.00
2019-02-06T09:57:24.915Z,32.20
2019-02-06T10:00:41.153Z,32.00
2019-02-06T10:03:57.172Z,32.00
2019-02-06T10:07:13.254Z,32.10
2019-02-06T10:10:29.175Z,32.10
2019-02-06T10:13:45.087Z,32.00
2019-02-06T10:17:01.156Z,31.80
2019-02-06T10:20:17.028Z,31.70
2019-02-06T10:23:32.788Z,31.70
2019-02-06T10:26:46.349Z,32.00
2019-02-06T10:30:20.302Z,32.00
2019-02-06T10:33:42.982Z,32.00
2019-02-06T10:36:58.547Z,32.10
2019-02-06T10:40:14.565Z,32.00
2019-02-06T10:43:32.027Z,32.30
2019-02-06T10:46:45.672Z,32.30
2019-02-06T10:50:01.776Z,32.30
2019-02-06T10:53:17.775Z,32.30
2019-02-06T10:56:33.754Z,32.00
2019-02-06T10:59:49.973Z,32.00
2019-02-06T11:03:05.254Z,32.00
2019-02-06T11:06:21.716Z,32.00
2019-02-06T11:09:45.999Z,32.00
2019-02-06T11:12:55.087Z,32.00
2019-02-06T11:16:11.140Z,32.00
2019-02-06T11:19:27.167Z,32.00
2019-02-06T11:22:42.529Z,31.70
2019-02-06T11:26:01.486Z,31.90
2019-02-06T11:29:17.405Z,31.70
2019-02-06T11:32:33.421Z,31.90
2019-02-06T11:35:49.450Z,31.60
2019-02-06T11:39:07.195Z,31.80
2019-02-06T11:42:22.577Z,31.80
2019-02-06T11:45:38.436Z,31.50
2019-02-06T11:48:53.583Z,31.50
2019-02-06T11:52:09.632Z,31.60
2019-02-06T11:55:29.417Z,31.50
2019-02-06T11:58:52.116Z,31.50
2019-02-06T12:02:08.167Z,31.40
2019-02-06T12:05:24.030Z,31.60
2019-02-06T12:08:41.431Z,31.50
2019-02-06T12:11:56.652Z,31.50
2019-02-06T12:15:12.703Z,31.40
2019-02-06T12:18:28.898Z,31.50
2019-02-06T12:21:44.913Z,31.50
2019-02-06T12:25:00.818Z,31.50
2019-02-06T12:28:16.753Z,31.50
2019-02-06T12:31:32.551Z,31.40
2019-02-06T12:34:47.825Z,31.20
2019-02-06T12:38:04.167Z,31.20
2019-02-06T12:41:19.450Z,31.30
2019-02-06T12:44:35.580Z,31.30
2019-02-06T12:47:51.503Z,31.10
2019-02-06T12:51:07.413Z,31.40
2019-02-06T12:54:23.384Z,31.30
2019-02-06T12:57:38.650Z,31.30
2019-02-06T13:00:52.342Z,31.10
2019-02-06T13:04:15.025Z,31.10
2019-02-06T13:07:30.562Z,31.00
2019-02-06T13:10:46.434Z,31.00
2019-02-06T13:14:02.647Z,31.10
2019-02-06T13:17:18.361Z,31.20
2019-02-06T13:20:34.592Z,31.10
2019-02-06T13:23:50.235Z,31.30
2019-02-06T13:27:06.025Z,31.90
2019-02-06T13:30:22.035Z,31.40
2019-02-06T13:33:38.082Z,31.30
2019-02-06T13:37:02.366Z,31.90
2019-02-06T13:43:49.647Z,31.50
2019-02-06T13:47:05.082Z,31.50
2019-02-06T13:50:22.299Z,31.50
2019-02-06T13:53:38.257Z,31.70
2019-02-06T13:56:54.087Z,31.60
2019-02-06T14:00:09.518Z,31.70
2019-02-06T14:03:25.359Z,31.70
2019-02-06T14:06:41.461Z,31.50
2019-02-06T14:09:57.291Z,31.50
2019-02-06T14:13:13.288Z,31.60
2019-02-06T14:16:29.182Z,31.50
2019-02-06T14:19:45.142Z,31.50
2019-02-06T14:23:01.352Z,31.60
2019-02-06T14:26:17.258Z,31.60
2019-02-06T14:29:33.156Z,31.50
2019-02-06T14:32:50.895Z,31.40
2019-02-06T14:36:06.358Z,31.60
2019-02-06T14:39:22.499Z,31.40
2019-02-06T14:42:40.815Z,31.40
2019-02-06T14:45:53.176Z,31.40
2019-02-06T14:49:05.631Z,31.50
2019-02-06T14:52:49.126Z,31.50
2019-02-06T14:56:04.473Z,31.40
2019-02-06T14:59:20.458Z,31.50
2019-02-06T15:02:36.596Z,31.20
2019-02-06T15:09:10.115Z,31.30
2019-02-06T15:12:26.188Z,31.30
2019-02-06T15:15:42.639Z,31.50
2019-02-06T15:18:58.565Z,31.40
2019-02-06T15:22:13.837Z,31.30
2019-02-06T15:25:31.122Z,31.30
2019-02-06T15:28:49.746Z,31.50
2019-02-06T15:32:05.300Z,31.40
2019-02-06T15:35:21.352Z,31.60
2019-02-06T15:38:37.606Z,31.50
2019-02-06T15:41:53.667Z,31.50
2019-02-06T15:45:09.557Z,31.20
2019-02-06T15:48:24.758Z,31.20
2019-02-06T15:52:06.921Z,31.30
2019-02-06T15:58:39.155Z,31.50
2019-02-06T16:01:54.354Z,31.50
2019-02-06T16:05:15.014Z,31.30
2019-02-06T16:08:30.978Z,31.30
2019-02-06T16:11:46.462Z,31.20
2019-02-06T16:15:01.730Z,31.20
2019-02-06T16:18:17.563Z,31.10
2019-02-06T16:21:32.805Z,31.30
2019-02-06T16:24:48.751Z,31.30
2019-02-06T16:28:04.713Z,31.10
2019-02-06T16:31:19.991Z,31.00
2019-02-06T16:34:35.599Z,31.00
2019-02-06T16:37:51.023Z,31.00
2019-02-06T16:41:07.090Z,31.10
2019-02-06T16:44:23.194Z,31.40
2019-02-06T16:47:45.254Z,31.40
2019-02-06T16:50:55.505Z,31.80
2019-02-06T16:54:11.375Z,31.80
2019-02-06T16:57:27.252Z,31.80
2019-02-06T17:00:42.509Z,32.00
2019-02-06T17:03:58.568Z,31.90
2019-02-06T17:07:16.251Z,32.00
2019-02-06T17:10:32.199Z,32.10
2019-02-06T17:14:15.677Z,31.80
2019-02-06T17:21:33.662Z,32.00
2019-02-06T17:24:48.879Z,31.80
2019-02-06T17:28:04.329Z,31.80
2019-02-06T17:31:20.352Z,31.80
2019-02-06T17:34:35.842Z,31.80
2019-02-06T17:37:53.065Z,31.70
2019-02-06T17:44:52.370Z,32.00
2019-02-06T17:48:07.603Z,31.70
2019-02-06T17:51:22.841Z,31.70
2019-02-06T17:54:38.830Z,31.80
2019-02-06T17:57:54.891Z,31.70
2019-02-06T18:01:10.186Z,31.90
2019-02-06T18:04:26.321Z,31.70
2019-02-06T18:07:42.673Z,31.90
2019-02-06T18:10:58.846Z,32.30
2019-02-06T18:14:14.870Z,31.70
2019-02-06T18:17:30.928Z,31.80
2019-02-06T18:20:44.588Z,31.70
2019-02-06T18:24:00.110Z,31.80
2019-02-06T18:27:16.072Z,31.70
2019-02-06T18:30:31.790Z,31.90
2019-02-06T18:33:47.843Z,31.70
2019-02-06T18:37:03.860Z,31.70
2019-02-06T18:40:19.835Z,31.70
2019-02-06T18:43:36.707Z,31.70
2019-02-06T18:46:52.087Z,31.70
2019-02-06T18:50:07.314Z,31.50
2019-02-06T18:53:23.404Z,31.50
2019-02-06T18:56:26.663Z,31.50
2019-02-06T18:59:30.930Z,31.70
2019-02-06T19:02:34.262Z,31.80
2019-02-06T19:05:57.240Z,31.80
2019-02-06T19:09:12.854Z,31.70
2019-02-06T19:12:28.838Z,31.80
2019-02-06T19:15:44.044Z,31.60
2019-02-06T19:18:59.745Z,31.20
2019-02-06T19:22:15.670Z,31.80
2019-02-06T19:25:31.996Z,31.80
2019-02-06T19:28:45.576Z,31.80
2019-02-06T19:32:08.342Z,31.80
2019-02-06T19:35:24.002Z,31.60
2019-02-06T19:38:39.390Z,31.70
2019-02-06T19:41:55.489Z,32.10
2019-02-06T19:45:11.593Z,31.80
2019-02-06T19:48:27.738Z,31.60
2019-02-06T19:51:43.686Z,31.80
2019-02-06T19:54:59.003Z,31.70
2019-02-06T19:58:15.162Z,31.80
2019-02-06T20:01:31.509Z,31.80
2019-02-06T20:04:47.354Z,31.60
2019-02-06T20:08:03.577Z,31.60
2019-02-06T20:11:19.677Z,31.80
2019-02-06T20:14:35.514Z,32.30
2019-02-06T20:17:51.866Z,31.60
2019-02-06T20:21:08.021Z,31.80
2019-02-06T20:24:23.925Z,31.60
2019-02-06T20:27:39.270Z,31.60
2019-02-06T20:34:16.722Z,31.70
2019-02-06T20:37:32.602Z,31.60
2019-02-06T20:40:46.259Z,31.50
2019-02-06T20:44:09.034Z,31.60
2019-02-06T20:47:24.745Z,31.40
2019-02-06T20:50:40.717Z,31.40
2019-02-06T20:53:56.955Z,31.40
2019-02-06T20:57:15.647Z,31.50
2019-02-06T21:00:30.243Z,31.30
2019-02-06T21:03:46.069Z,31.40
2019-02-06T21:07:01.394Z,31.40
2019-02-06T21:10:16.779Z,31.30
2019-02-06T21:13:33.805Z,31.40
2019-02-06T21:16:50.094Z,31.50
2019-02-06T21:20:07.418Z,31.30
2019-02-06T21:23:23.438Z,31.30
2019-02-06T21:26:40.367Z,31.20
2019-02-06T21:29:55.885Z,31.20
2019-02-06T21:33:11.558Z,31.40
2019-02-06T21:36:27.924Z,31.20
2019-02-06T21:39:41.493Z,31.20
2019-02-06T21:42:57.034Z,31.30
2019-02-06T21:46:12.381Z,31.40
2019-02-06T21:49:28.227Z,31.30
2019-02-06T21:52:43.934Z,31.30
2019-02-06T21:55:59.774Z,31.10
2019-02-06T21:59:15.683Z,31.10
2019-02-06T22:02:31.231Z,31.30
2019-02-06T22:05:47.377Z,31.20
2019-02-06T22:09:03.945Z,31.30
2019-02-06T22:12:19.987Z,31.30
2019-02-06T22:15:36.099Z,31.20
2019-02-06T22:18:51.821Z,31.30
2019-02-06T22:22:07.080Z,31.20
2019-02-06T22:25:20.684Z,31.10
2019-02-06T22:28:36.000Z,31.10
2019-02-06T22:31:51.842Z,31.10
2019-02-06T22:35:07.527Z,31.30
2019-02-06T22:38:23.562Z,31.20
2019-02-06T22:41:39.342Z,31.20
2019-02-06T22:44:54.899Z,31.20
2019-02-06T22:48:10.611Z,31.10
2019-02-06T22:51:25.911Z,31.00
2019-02-06T22:54:41.976Z,31.10
2019-02-06T22:57:58.037Z,31.10
2019-02-06T23:01:14.026Z,31.20
2019-02-06T23:04:29.620Z,31.20
2019-02-06T23:07:45.475Z,31.00
2019-02-06T23:11:01.580Z,31.10
2019-02-06T23:14:18.039Z,31.10
2019-02-06T23:17:33.794Z,31.20
2019-02-06T23:20:49.634Z,31.20
2019-02-06T23:24:05.599Z,31.00
2019-02-06T23:27:21.212Z,31.00
2019-02-06T23:30:37.251Z,31.00
2019-02-06T23:33:53.327Z,31.00
2019-02-06T23:37:11.399Z,31.20
2019-02-06T23:40:26.192Z,31.80
2019-02-06T23:43:41.999Z,31.10
2019-02-06T23:46:57.883Z,31.10
2019-02-06T23:50:13.370Z,31.20
2019-02-06T23:53:29.406Z,31.20
2019-02-06T23:56:45.583Z,31.00
